Time;durP1;ratioP1;P1;durP2;ratioP2;P2;SDS_P1;SDS_P2;PMS_P1;PMS_P2;Temp;Humidity;BMP_temperature;BMP_pressure;BME280_temperature;BME280_humidity;BME280_pressure;Samples;Min_cycle;Max_cycle;Signal;HPM_P1;HPM_P2
2022/06/11 00:01:10;;;;;;;1.40;1.30;;;24.90;57.90;;;;;;5102573;28;20134;-64
2022/06/11 00:03:40;;;;;;;1.40;1.40;;;24.90;57.90;;;;;;5107500;28;20078;-63
2022/06/11 00:06:07;;;;;;;1.73;1.63;;;24.90;57.90;;;;;;5106916;28;20134;-63
2022/06/11 00:08:35;;;;;;;1.60;1.50;;;24.90;57.90;;;;;;5106791;28;20454;-63
2022/06/11 00:11:03;;;;;;;1.38;1.38;;;24.90;57.90;;;;;;5106727;28;20044;-63
2022/06/11 00:13:31;;;;;;;1.73;1.63;;;24.90;57.90;;;;;;5107149;27;20093;-63
2022/06/11 00:15:58;;;;;;;1.20;1.20;;;24.90;57.90;;;;;;5106166;28;20273;-63
2022/06/11 00:18:26;;;;;;;1.35;1.35;;;24.90;57.90;;;;;;5105379;28;20462;-63
2022/06/11 00:20:53;;;;;;;1.38;1.27;;;24.90;57.90;;;;;;5106646;28;20259;-63
2022/06/11 00:23:20;;;;;;;2.38;1.55;;;24.80;57.90;;;;;;5106774;27;20500;-64
2022/06/11 00:25:47;;;;;;;2.47;1.45;;;24.90;57.90;;;;;;5105873;28;20711;-63
2022/06/11 00:28:15;;;;;;;1.45;1.42;;;24.90;57.90;;;;;;5105546;28;20075;-63
2022/06/11 00:30:43;;;;;;;1.30;1.30;;;24.90;57.90;;;;;;5105517;28;20507;-63
2022/06/11 00:33:10;;;;;;;1.48;1.40;;;24.90;57.90;;;;;;5100724;28;20598;-63
2022/06/11 00:35:40;;;;;;;1.55;1.38;;;24.90;58.00;;;;;;5104398;28;20069;-63
2022/06/11 00:38:08;;;;;;;1.73;1.63;;;24.90;58.00;;;;;;5105412;28;20472;-63
2022/06/11 00:40:38;;;;;;;1.58;1.30;;;24.90;58.00;;;;;;5105470;28;20082;-63
2022/06/11 00:43:06;;;;;;;1.20;1.20;;;24.80;57.90;;;;;;5104624;28;20482;-63
2022/06/11 00:45:59;;;;;;;1.15;1.15;;;24.80;57.90;;;;;;5105079;28;20040;-63
2022/06/11 00:48:34;;;;;;;1.67;1.60;;;24.80;57.90;;;;;;5105462;28;20407;-63
2022/06/11 00:51:11;;;;;;;1.33;1.33;;;24.80;57.90;;;;;;5103923;28;20055;-63
2022/06/11 00:53:45;;;;;;;0.98;0.98;;;24.80;58.00;;;;;;5104405;28;20500;-63
2022/06/11 00:56:21;;;;;;;1.33;1.33;;;24.80;57.90;;;;;;5104946;28;20127;-63
2022/06/11 00:58:50;;;;;;;1.38;1.30;;;24.80;58.00;;;;;;5104947;28;20142;-63
2022/06/11 01:01:21;;;;;;;1.73;1.63;;;24.80;58.00;;;;;;5103672;28;20469;-63
2022/06/11 01:03:52;;;;;;;1.55;1.45;;;24.80;58.00;;;;;;5099947;28;20035;-63
2022/06/11 01:06:51;;;;;;;1.83;1.15;;;24.80;58.00;;;;;;5104625;28;20404;-63
2022/06/11 01:09:40;;;;;;;1.30;1.30;;;24.80;58.00;;;;;;5104405;28;20043;-63
2022/06/11 01:12:32;;;;;;;1.48;1.45;;;24.80;58.00;;;;;;5104984;28;20630;-63
2022/06/11 01:15:22;;;;;;;1.25;1.25;;;24.80;57.90;;;;;;5103524;28;20553;-63
2022/06/11 01:18:15;;;;;;;1.40;1.40;;;24.80;58.00;;;;;;5104401;28;20488;-63
2022/06/11 01:21:15;;;;;;;2.15;1.20;;;24.80;58.00;;;;;;5104814;28;20083;-63
2022/06/11 01:24:21;;;;;;;1.13;1.13;;;24.80;57.90;;;;;;5103500;28;20043;-63
2022/06/11 01:27:06;;;;;;;1.98;1.88;;;24.80;57.90;;;;;;5045086;28;1690417;-63
2022/06/11 01:29:52;;;;;;;1.27;1.27;;;24.80;57.90;;;;;;5105519;28;20047;-64
2022/06/11 01:32:41;;;;;;;1.23;1.23;;;24.80;57.90;;;;;;5105837;28;20051;-63
2022/06/11 01:35:37;;;;;;;1.55;1.38;;;24.90;57.90;;;;;;5100908;28;20227;-63
2022/06/11 01:38:17;;;;;;;1.10;1.10;;;24.90;57.90;;;;;;5104263;28;20044;-63
2022/06/11 01:41:20;;;;;;;1.15;1.15;;;24.80;57.80;;;;;;5104713;28;20051;-63
2022/06/11 01:43:51;;;;;;;1.23;1.23;;;24.80;57.80;;;;;;5107676;28;20534;-63
2022/06/11 01:46:23;;;;;;;1.45;1.35;;;24.80;57.90;;;;;;5109745;27;20695;-63
2022/06/11 01:49:01;;;;;;;1.50;1.50;;;24.80;58.40;;;;;;5108020;28;20083;-63
2022/06/11 01:51:46;;;;;;;1.65;1.55;;;24.80;57.80;;;;;;5109167;28;20081;-63
2022/06/11 01:54:42;;;;;;;1.63;1.52;;;24.80;57.80;;;;;;5109495;27;20263;-63
2022/06/11 01:57:36;;;;;;;1.50;1.42;;;24.80;57.90;;;;;;5109352;28;20104;-64
2022/06/11 02:00:28;;;;;;;1.35;1.35;;;24.80;57.90;;;;;;5108750;28;20460;-63
2022/06/11 02:03:11;;;;;;;1.02;1.02;;;24.80;57.80;;;;;;5107856;28;20615;-63
2022/06/11 02:06:03;;;;;;;0.90;0.90;;;24.80;57.80;;;;;;5108497;28;20067;-63
2022/06/11 02:09:01;;;;;;;0.93;0.93;;;24.80;57.80;;;;;;5107017;28;20090;-63
2022/06/11 02:11:42;;;;;;;1.42;1.33;;;24.80;57.80;;;;;;5109526;28;20047;-63
2022/06/11 02:14:12;;;;;;;;;;;24.80;57.80;;;;;;5108615;28;20547;-63
2022/06/11 02:16:55;;;;;;;1.15;1.15;;;24.80;57.80;;;;;;5109264;28;20375;-63
2022/06/11 02:19:31;;;;;;;1.60;1.50;;;24.80;57.80;;;;;;5107844;28;20546;-63
2022/06/11 02:22:07;;;;;;;1.23;1.23;;;24.80;57.80;;;;;;5109130;28;20200;-64
2022/06/11 02:24:52;;;;;;;1.33;1.33;;;24.80;57.80;;;;;;5108432;28;20075;-64
2022/06/11 02:27:27;;;;;;;1.17;1.17;;;24.80;57.80;;;;;;5108779;28;20047;-63
2022/06/11 02:29:55;;;;;;;1.08;1.08;;;24.80;57.80;;;;;;5109207;28;20126;-63
2022/06/11 02:32:26;;;;;;;1.00;1.00;;;24.80;57.80;;;;;;5108914;28;20457;-63
2022/06/11 02:34:58;;;;;;;1.15;1.15;;;24.80;57.90;;;;;;5108872;28;20089;-64
2022/06/11 02:37:29;;;;;;;1.20;1.20;;;24.80;57.90;;;;;;5105512;28;20048;-63
2022/06/11 02:40:03;;;;;;;1.10;1.10;;;24.80;57.90;;;;;;5109022;28;20090;-63
2022/06/11 02:42:31;;;;;;;1.23;1.13;;;24.70;57.80;;;;;;5106744;28;20043;-63
2022/06/11 02:44:58;;;;;;;1.10;1.10;;;24.80;57.80;;;;;;5108658;28;20043;-63
2022/06/11 02:47:26;;;;;;;1.45;1.40;;;24.80;57.80;;;;;;5108837;28;20050;-63
2022/06/11 02:49:54;;;;;;;1.02;1.02;;;24.70;57.80;;;;;;5108713;28;20098;-63
2022/06/11 02:52:25;;;;;;;0.93;0.93;;;24.80;57.80;;;;;;5107816;28;20047;-63
2022/06/11 02:54:52;;;;;;;1.42;1.33;;;24.70;57.80;;;;;;5107837;28;20079;-63
2022/06/11 02:57:25;;;;;;;0.90;0.90;;;24.80;57.80;;;;;;5106389;28;20044;-63
2022/06/11 02:59:53;;;;;;;1.10;1.10;;;24.80;57.80;;;;;;5106980;28;20736;-63
2022/06/11 03:02:22;;;;;;;1.30;1.30;;;24.70;57.80;;;;;;5108072;28;20726;-63
2022/06/11 03:04:50;;;;;;;1.20;1.20;;;24.80;57.80;;;;;;5108508;28;20047;-63
2022/06/11 03:07:18;;;;;;;0.90;0.90;;;24.80;57.80;;;;;;5090370;28;20044;-63
2022/06/11 03:09:46;;;;;;;1.10;1.10;;;24.80;57.80;;;;;;5102328;28;20048;-65
2022/06/11 03:12:15;;;;;;;1.05;1.05;;;24.80;57.80;;;;;;5107893;28;20880;-63
2022/06/11 03:14:43;;;;;;;1.10;1.10;;;24.80;57.70;;;;;;5106845;28;20441;-63
2022/06/11 03:17:13;;;;;;;1.33;1.23;;;24.80;57.70;;;;;;5106757;28;20074;-63
2022/06/11 03:19:41;;;;;;;1.30;1.30;;;24.80;57.70;;;;;;5108154;28;20130;-63
2022/06/11 03:22:08;;;;;;;0.98;0.98;;;24.80;57.70;;;;;;5108214;28;20044;-63
2022/06/11 03:24:36;;;;;;;1.30;1.30;;;24.80;57.70;;;;;;5105919;28;20724;-64
2022/06/11 03:27:05;;;;;;;1.30;1.30;;;24.80;57.70;;;;;;5106495;28;20577;-63
2022/06/11 03:29:32;;;;;;;1.15;1.15;;;24.80;57.60;;;;;;5107678;28;20100;-63
2022/06/11 03:31:59;;;;;;;1.25;1.25;;;24.80;57.60;;;;;;5105985;28;20537;-63
2022/06/11 03:34:27;;;;;;;0.98;0.98;;;24.80;57.60;;;;;;5107718;28;20048;-63
2022/06/11 03:36:55;;;;;;;1.02;1.02;;;24.80;57.60;;;;;;5107912;27;20123;-63
2022/06/11 03:39:23;;;;;;;1.00;1.00;;;24.90;57.60;;;;;;5107590;28;20051;-64
2022/06/11 03:41:53;;;;;;;1.08;1.08;;;24.90;57.50;;;;;;5101351;28;20595;-63
2022/06/11 03:44:21;;;;;;;0.90;0.90;;;24.90;57.50;;;;;;5107290;28;20106;-63
2022/06/11 03:46:48;;;;;;;1.50;1.10;;;24.90;57.40;;;;;;5107292;28;20096;-63
2022/06/11 03:49:16;;;;;;;1.00;1.00;;;24.90;57.60;;;;;;5107018;27;20138;-63
2022/06/11 03:51:44;;;;;;;1.00;1.00;;;24.90;57.40;;;;;;5107696;28;20093;-63
2022/06/11 03:54:13;;;;;;;1.33;1.30;;;24.90;57.30;;;;;;5107435;27;20079;-63
2022/06/11 03:56:41;;;;;;;0.95;0.95;;;24.90;57.30;;;;;;5107510;28;20383;-63
2022/06/11 03:59:09;;;;;;;0.80;0.80;;;24.90;57.30;;;;;;5107742;27;20054;-63
2022/06/11 04:01:37;;;;;;;1.00;1.00;;;24.90;57.20;;;;;;5107018;28;20143;-63
2022/06/11 04:04:08;;;;;;;0.98;0.98;;;24.90;57.20;;;;;;5107376;28;20052;-63
2022/06/11 04:06:43;;;;;;;1.08;1.08;;;25.00;57.20;;;;;;5105880;27;20148;-63
2022/06/11 04:09:19;;;;;;;0.98;0.98;;;25.00;57.10;;;;;;5105809;28;20051;-63
2022/06/11 04:11:46;;;;;;;0.90;0.90;;;25.10;57.10;;;;;;5101473;28;20055;-63
2022/06/11 04:14:14;;;;;;;0.77;0.77;;;25.10;57.00;;;;;;5106695;28;20069;-63
2022/06/11 04:16:48;;;;;;;0.93;0.93;;;25.10;56.90;;;;;;5106720;28;20044;-63
2022/06/11 04:19:24;;;;;;;1.00;1.00;;;25.10;56.80;;;;;;5105841;28;20044;-63
2022/06/11 04:21:53;;;;;;;1.05;1.05;;;25.10;56.70;;;;;;5105207;28;20092;-63
2022/06/11 04:24:21;;;;;;;1.00;1.00;;;25.20;56.70;;;;;;5105171;28;20484;-63
2022/06/11 04:26:51;;;;;;;1.23;1.23;;;25.20;56.60;;;;;;5105542;28;20105;-63
2022/06/11 04:29:20;;;;;;;;;;;25.20;56.50;;;;;;5107315;28;20112;-63
2022/06/11 04:31:50;;;;;;;0.80;0.80;;;25.20;56.40;;;;;;5105969;27;20449;-63
2022/06/11 04:34:18;;;;;;;1.10;1.10;;;25.30;56.40;;;;;;5105816;28;20462;-63
2022/06/11 04:36:46;;;;;;;1.13;1.13;;;25.30;56.40;;;;;;5106664;28;20122;-63
2022/06/11 04:39:15;;;;;;;1.08;1.08;;;25.30;56.40;;;;;;5105991;28;20125;-63
2022/06/11 04:41:43;;;;;;;1.02;1.02;;;25.30;56.30;;;;;;5106855;28;20101;-63
2022/06/11 04:44:10;;;;;;;1.13;1.02;;;25.40;56.30;;;;;;5101995;28;20126;-63
2022/06/11 04:46:38;;;;;;;0.98;0.98;;;25.40;56.20;;;;;;5104988;28;20413;-63
2022/06/11 04:49:05;;;;;;;1.20;1.10;;;25.40;56.10;;;;;;5105020;28;20442;-64
2022/06/11 04:51:32;;;;;;;1.13;1.13;;;25.40;56.00;;;;;;5106556;28;20317;-63
2022/06/11 04:53:59;;;;;;;1.10;1.00;;;25.40;55.90;;;;;;5105994;28;20048;-63
2022/06/11 04:56:28;;;;;;;1.00;1.00;;;25.50;55.90;;;;;;5106052;28;20142;-63
2022/06/11 04:58:56;;;;;;;1.00;1.00;;;25.50;55.70;;;;;;5106319;28;20071;-63
2022/06/11 05:01:30;;;;;;;1.10;1.10;;;25.50;55.60;;;;;;5105391;28;20370;-63
2022/06/11 05:03:58;;;;;;;1.25;1.25;;;25.60;55.60;;;;;;5106240;28;20301;-63
2022/06/11 05:06:31;;;;;;;0.90;0.90;;;25.60;55.50;;;;;;5106264;28;20535;-63
2022/06/11 05:08:59;;;;;;;1.25;1.25;;;25.60;55.30;;;;;;5106053;27;20048;-63
2022/06/11 05:11:26;;;;;;;0.90;0.90;;;25.60;55.30;;;;;;5105728;28;20452;-64
2022/06/11 05:13:54;;;;;;;1.05;1.05;;;25.50;55.20;;;;;;5106115;28;20477;-63
2022/06/11 05:16:22;;;;;;;1.35;1.25;;;25.40;55.40;;;;;;5101145;28;20477;-63
2022/06/11 05:18:49;;;;;;;0.75;0.75;;;25.20;55.60;;;;;;5104403;28;20411;-63
2022/06/11 05:21:16;;;;;;;1.15;1.10;;;25.00;56.00;;;;;;5105729;28;20484;-63
2022/06/11 05:23:44;;;;;;;1.60;1.50;;;24.80;55.90;;;;;;5105679;28;20092;-63
2022/06/11 05:26:17;;;;;;;1.10;1.10;;;24.50;55.10;;;;;;5105290;28;20113;-63
2022/06/11 05:28:45;;;;;;;1.23;1.10;;;24.20;54.30;;;;;;5105578;28;20101;-63
2022/06/11 05:31:12;;;;;;;1.00;1.00;;;23.90;53.50;;;;;;5106555;28;20082;-63
2022/06/11 05:33:40;;;;;;;0.90;0.90;;;23.60;52.50;;;;;;5106292;28;20153;-63
2022/06/11 05:36:08;;;;;;;0.90;0.90;;;23.20;52.40;;;;;;5106683;28;20100;-63
2022/06/11 05:38:35;;;;;;;1.05;1.05;;;22.80;51.80;;;;;;5107371;28;20044;-63
2022/06/11 05:41:03;;;;;;;1.00;1.00;;;22.40;51.90;;;;;;5105155;28;20589;-63
2022/06/11 05:43:30;;;;;;;1.30;1.20;;;22.10;52.20;;;;;;5106033;28;20083;-63
2022/06/11 05:46:10;;;;;;;0.93;0.93;;;21.70;52.60;;;;;;5101924;28;20052;-62
2022/06/11 05:48:42;;;;;;;1.17;1.17;;;21.40;52.70;;;;;;5107013;28;20471;-63
2022/06/11 05:51:15;;;;;;;1.25;1.25;;;21.10;54.00;;;;;;5104875;28;20043;-63
2022/06/11 05:53:47;;;;;;;1.33;1.15;;;20.90;55.00;;;;;;5105882;28;20047;-63
2022/06/11 05:56:16;;;;;;;1.13;1.13;;;20.70;55.10;;;;;;5105386;28;20047;-65
2022/06/11 05:58:49;;;;;;;1.10;1.10;;;20.50;55.20;;;;;;5106112;28;20086;-63
2022/06/11 06:01:19;;;;;;;1.02;1.02;;;20.30;55.80;;;;;;5106125;28;20047;-63
2022/06/11 06:03:46;;;;;;;1.20;1.20;;;20.20;56.10;;;;;;5105547;28;20089;-62
2022/06/11 06:06:13;;;;;;;1.40;1.40;;;20.10;55.90;;;;;;5106872;28;20404;-63
2022/06/11 06:08:41;;;;;;;1.08;1.08;;;19.90;56.60;;;;;;5106556;28;20113;-62
2022/06/11 06:11:08;;;;;;;1.42;1.40;;;19.90;57.50;;;;;;5106107;28;20085;-62
2022/06/11 06:13:48;;;;;;;1.45;1.35;;;19.80;57.20;;;;;;5107152;28;20048;-62
2022/06/11 06:16:20;;;;;;;1.20;1.10;;;19.70;57.40;;;;;;5105773;28;20454;-63
2022/06/11 06:18:49;;;;;;;1.58;1.48;;;19.80;57.80;;;;;;5101691;28;20048;-62
2022/06/11 06:21:19;;;;;;;1.52;1.42;;;19.70;57.70;;;;;;5106289;28;20561;-64
2022/06/11 06:23:46;;;;;;;1.40;1.40;;;19.60;57.20;;;;;;5104951;28;20044;-62
2022/06/11 06:26:14;;;;;;;1.60;1.50;;;19.60;57.60;;;;;;5106315;28;20075;-63
2022/06/11 06:28:41;;;;;;;1.30;1.30;;;19.60;58.10;;;;;;5106699;28;20214;-63
2022/06/11 06:31:11;;;;;;;1.83;1.73;;;19.60;57.60;;;;;;5110236;28;20075;-62
2022/06/11 06:33:39;;;;;;;1.20;1.20;;;19.50;58.20;;;;;;5108552;28;20138;-63
2022/06/11 06:36:07;;;;;;;1.63;1.52;;;19.50;58.90;;;;;;5109765;28;20334;-63
2022/06/11 06:38:36;;;;;;;1.50;1.40;;;19.50;57.80;;;;;;5109904;28;20047;-63
2022/06/11 06:41:07;;;;;;;1.98;1.88;;;19.50;57.70;;;;;;5109383;28;20043;-63
2022/06/11 06:43:35;;;;;;;1.55;1.48;;;19.40;58.20;;;;;;5110208;28;20104;-63
2022/06/11 06:46:03;;;;;;;1.58;1.48;;;19.40;58.00;;;;;;5109837;28;20040;-62
2022/06/11 06:48:30;;;;;;;1.50;1.42;;;19.40;58.00;;;;;;5108227;28;20500;-62
2022/06/11 06:51:00;;;;;;;1.50;1.40;;;19.40;58.20;;;;;;5106623;28;20048;-62
2022/06/11 06:53:28;;;;;;;1.50;1.40;;;19.40;57.50;;;;;;5109707;28;20624;-63
2022/06/11 06:55:55;;;;;;;1.35;1.35;;;19.30;57.50;;;;;;5109587;28;20082;-62
2022/06/11 06:58:23;;;;;;;1.10;1.10;;;19.30;57.00;;;;;;5109560;28;20051;-62
2022/06/11 07:00:50;;;;;;;2.97;1.40;;;19.20;56.80;;;;;;5109854;28;20075;-62
2022/06/11 07:03:18;;;;;;;1.27;1.25;;;19.20;57.10;;;;;;5109127;28;20251;-62
2022/06/11 07:05:46;;;;;;;1.50;1.40;;;19.10;57.10;;;;;;5108077;28;20487;-62
2022/06/11 07:08:13;;;;;;;1.08;1.08;;;19.00;57.50;;;;;;5109280;28;20095;-62
2022/06/11 07:10:47;;;;;;;1.65;1.55;;;19.00;57.10;;;;;;5107956;28;20075;-62
2022/06/11 07:13:15;;;;;;;1.55;1.45;;;18.80;57.80;;;;;;5109356;28;20051;-62
2022/06/11 07:15:43;;;;;;;1.55;1.45;;;18.70;59.20;;;;;;5109566;28;20531;-62
2022/06/11 07:18:24;;;;;;;1.23;1.23;;;18.60;59.20;;;;;;5107845;28;20135;-62
2022/06/11 07:20:53;;;;;;;1.65;1.55;;;18.50;58.80;;;;;;5104785;28;20127;-62
2022/06/11 07:23:35;;;;;;;1.58;1.48;;;18.30;58.70;;;;;;5108545;28;20077;-62
2022/06/11 07:26:08;;;;;;;1.40;1.40;;;18.30;58.50;;;;;;5109378;28;20063;-62
2022/06/11 07:28:40;;;;;;;1.35;1.35;;;18.20;58.90;;;;;;5108672;28;20256;-62
2022/06/11 07:31:07;;;;;;;2.17;1.90;;;18.00;58.70;;;;;;5107856;28;20044;-62
2022/06/11 07:33:34;;;;;;;4.47;1.60;;;18.00;60.20;;;;;;5109180;28;20047;-62
2022/06/11 07:36:03;;;;;;;1.50;1.40;;;18.00;60.70;;;;;;5107508;28;20484;-62
2022/06/11 07:38:30;;;;;;;1.70;1.60;;;18.00;60.60;;;;;;5108870;28;20077;-62
2022/06/11 07:40:58;;;;;;;1.70;1.60;;;18.10;61.00;;;;;;5105778;27;20636;-62
2022/06/11 07:43:25;;;;;;;1.85;1.75;;;18.10;60.50;;;;;;5107181;27;20071;-62
2022/06/11 07:45:52;;;;;;;2.05;1.95;;;18.10;59.80;;;;;;5108749;28;20046;-62
2022/06/11 07:48:20;;;;;;;1.52;1.40;;;18.00;61.40;;;;;;5109047;28;20420;-62
2022/06/11 07:50:49;;;;;;;1.77;1.67;;;18.00;61.50;;;;;;5109014;28;20527;-62
2022/06/11 07:53:19;;;;;;;1.30;1.30;;;18.00;61.30;;;;;;5103528;27;20052;-62
2022/06/11 07:55:48;;;;;;;1.55;1.45;;;18.10;60.80;;;;;;5107304;28;20047;-62
2022/06/11 07:58:18;;;;;;;2.10;1.98;;;18.10;60.80;;;;;;5107968;28;20105;-62
2022/06/11 08:00:48;;;;;;;1.98;1.80;;;18.10;60.60;;;;;;5106351;28;20043;-62
2022/06/11 08:03:16;;;;;;;2.38;1.60;;;18.10;61.00;;;;;;5107040;28;20079;-62
2022/06/11 08:05:44;;;;;;;1.73;1.63;;;18.10;61.00;;;;;;5107914;28;20496;-62
2022/06/11 08:08:13;;;;;;;1.70;1.60;;;18.10;61.10;;;;;;5108548;28;20097;-62
2022/06/11 08:10:42;;;;;;;1.80;1.75;;;18.10;61.00;;;;;;5106901;28;20096;-62
2022/06/11 08:13:10;;;;;;;1.63;1.52;;;18.10;61.20;;;;;;5108317;28;20059;-62
2022/06/11 08:15:39;;;;;;;1.60;1.50;;;18.10;61.90;;;;;;5108396;28;20043;-63
2022/06/11 08:18:07;;;;;;;1.73;1.63;;;18.10;62.30;;;;;;5106198;28;20043;-62
2022/06/11 08:20:37;;;;;;;1.83;1.73;;;18.10;61.90;;;;;;5108140;28;20051;-62
2022/06/11 08:23:05;;;;;;;1.90;1.80;;;18.10;61.80;;;;;;5105079;28;20077;-63
2022/06/11 08:25:34;;;;;;;1.70;1.60;;;18.10;62.40;;;;;;5107125;28;20082;-62
2022/06/11 08:28:01;;;;;;;2.00;1.90;;;18.20;62.30;;;;;;5108104;28;20402;-62
2022/06/11 08:30:30;;;;;;;1.40;1.40;;;18.20;62.00;;;;;;5107363;28;20310;-62
2022/06/11 08:32:57;;;;;;;1.73;1.63;;;18.20;61.70;;;;;;5107966;28;20569;-62
2022/06/11 08:35:26;;;;;;;1.65;1.55;;;18.20;61.40;;;;;;5107549;28;20050;-62
2022/06/11 08:37:54;;;;;;;1.45;1.35;;;18.20;61.90;;;;;;5106822;28;20105;-63
2022/06/11 08:40:40;;;;;;;1.70;1.60;;;18.20;61.70;;;;;;5107758;28;20109;-62
2022/06/11 08:43:21;;;;;;;1.98;1.88;;;18.20;61.70;;;;;;5106128;28;20047;-62
2022/06/11 08:45:54;;;;;;;;;;;18.20;61.40;;;;;;5107155;28;20197;-62
2022/06/11 08:49:01;;;;;;;1.63;1.52;;;18.10;61.50;;;;;;5107357;28;20275;-62
2022/06/11 08:51:44;;;;;;;1.80;1.70;;;18.10;61.30;;;;;;5107747;28;20047;-62
2022/06/11 08:54:15;;;;;;;1.73;1.67;;;18.10;61.50;;;;;;5104197;28;20048;-62
2022/06/11 08:57:06;;;;;;;1.67;1.58;;;18.10;61.60;;;;;;5086936;28;20086;-63
2022/06/11 09:00:13;;;;;;;1.80;1.70;;;18.10;61.70;;;;;;5106886;28;20369;-62
2022/06/11 09:03:10;;;;;;;1.80;1.70;;;18.10;62.10;;;;;;5106534;28;20039;-62
2022/06/11 09:06:14;;;;;;;2.10;2.00;;;18.10;61.90;;;;;;5106810;28;20079;-62
2022/06/11 09:09:01;;;;;;;1.80;1.70;;;18.10;61.60;;;;;;5106081;28;20132;-62
2022/06/11 09:11:45;;;;;;;1.75;1.65;;;18.10;62.00;;;;;;5107502;28;20079;-62
2022/06/11 09:14:52;;;;;;;1.60;1.50;;;18.10;62.20;;;;;;5107554;28;20100;-62
2022/06/11 09:17:50;;;;;;;2.00;1.85;;;18.10;61.90;;;;;;5107259;28;20043;-62
2022/06/11 09:20:41;;;;;;;1.85;1.75;;;18.10;61.70;;;;;;5105802;28;20501;-62
2022/06/11 09:23:41;;;;;;;1.85;1.75;;;18.10;62.20;;;;;;5106749;28;20426;-62
2022/06/11 09:26:35;;;;;;;2.47;2.25;;;18.10;61.80;;;;;;5102694;28;20044;-62
2022/06/11 09:29:42;;;;;;;2.22;2.10;;;18.10;61.70;;;;;;5105634;28;20092;-62
2022/06/11 09:32:25;;;;;;;2.35;2.25;;;18.10;61.80;;;;;;5105997;28;20047;-62
2022/06/11 09:35:00;;;;;;;1.85;1.75;;;18.10;62.40;;;;;;5090404;28;20078;-62
2022/06/11 09:37:39;;;;;;;2.22;2.13;;;18.10;62.20;;;;;;5106279;28;20131;-62
2022/06/11 09:40:30;;;;;;;2.10;1.90;;;18.10;62.50;;;;;;5107119;28;20135;-62
2022/06/11 09:43:18;;;;;;;2.20;2.10;;;18.20;62.00;;;;;;5106954;28;20052;-62
2022/06/11 09:46:23;;;;;;;2.28;2.15;;;18.20;61.90;;;;;;5106372;28;20043;-62
2022/06/11 09:49:18;;;;;;;2.95;1.88;;;18.20;61.70;;;;;;5106592;28;20492;-62
2022/06/11 09:52:25;;;;;;;1.92;1.83;;;18.20;61.80;;;;;;5105590;28;20056;-62
2022/06/11 09:55:29;;;;;;;2.60;2.40;;;18.20;62.30;;;;;;5105123;28;20079;-62
2022/06/11 09:58:16;;;;;;;2.30;2.10;;;18.20;61.80;;;;;;5102445;28;20044;-62
2022/06/11 10:01:10;;;;;;;1.80;1.70;;;18.20;62.40;;;;;;5106471;28;20052;-62
2022/06/11 10:03:51;;;;;;;2.47;2.28;;;18.20;62.10;;;;;;5106286;28;20040;-62
2022/06/11 10:06:58;;;;;;;2.33;2.15;;;18.20;62.10;;;;;;5110332;28;20373;-62
2022/06/11 10:09:33;;;;;;;2.08;1.90;;;18.20;62.50;;;;;;5109542;28;20052;-62
2022/06/11 10:12:16;;;;;;;1.98;1.88;;;18.20;62.10;;;;;;5109611;28;20134;-62
2022/06/11 10:15:10;;;;;;;2.10;2.00;;;18.30;62.40;;;;;;5111107;28;20122;-62
2022/06/11 10:17:57;;;;;;;2.30;2.13;;;18.30;62.60;;;;;;5110360;28;20511;-62
2022/06/11 10:20:30;;;;;;;1.88;1.77;;;18.30;61.60;;;;;;5110499;28;20064;-63
2022/06/11 10:23:25;;;;;;;2.58;2.38;;;18.30;61.70;;;;;;5110131;28;20583;-62
2022/06/11 10:26:10;;;;;;;2.50;2.35;;;18.30;61.60;;;;;;5109482;28;20047;-63
2022/06/11 10:28:45;;;;;;;2.08;1.98;;;18.20;61.90;;;;;;5110564;28;20537;-64
2022/06/11 10:31:19;;;;;;;2.00;1.90;;;18.30;61.80;;;;;;5104463;28;20044;-63
2022/06/11 10:34:18;;;;;;;2.28;2.10;;;18.30;61.60;;;;;;5110053;28;20050;-63
2022/06/11 10:37:04;;;;;;;2.47;2.05;;;18.30;61.30;;;;;;5109755;28;20044;-63
2022/06/11 10:39:45;;;;;;;2.30;2.10;;;18.30;61.00;;;;;;5110748;28;20071;-66
2022/06/11 10:42:25;;;;;;;2.15;2.05;;;18.30;61.70;;;;;;5109582;28;20074;-62
2022/06/11 10:44:54;;;;;;;1.90;1.80;;;18.30;62.30;;;;;;5110147;28;20331;-62
2022/06/11 10:47:42;;;;;;;1.70;1.60;;;18.30;61.80;;;;;;5109638;28;20484;-62
2022/06/11 10:50:33;;;;;;;2.22;2.03;;;18.40;61.20;;;;;;5110369;27;20444;-62
2022/06/11 10:53:34;;;;;;;2.33;2.10;;;18.40;61.10;;;;;;5110132;28;20108;-62
2022/06/11 10:56:13;;;;;;;2.10;2.00;;;18.30;61.20;;;;;;5109581;27;20138;-63
2022/06/11 10:58:58;;;;;;;2.10;1.90;;;18.30;61.00;;;;;;5109502;27;20429;-62
2022/06/11 11:01:44;;;;;;;2.15;2.05;;;18.30;61.10;;;;;;5105362;27;20135;-62
2022/06/11 11:04:27;;;;;;;2.30;2.20;;;18.30;61.70;;;;;;5110132;28;20121;-62
2022/06/11 11:07:19;;;;;;;2.45;2.13;;;18.30;62.00;;;;;;5107637;28;20067;-62
2022/06/11 11:09:47;;;;;;;2.22;2.13;;;18.30;61.50;;;;;;5108562;28;20323;-62
2022/06/11 11:12:22;;;;;;;2.75;2.55;;;18.30;61.40;;;;;;5109201;28;20078;-62
2022/06/11 11:15:13;;;;;;;2.38;2.00;;;18.30;62.20;;;;;;5108860;28;20758;-62
2022/06/11 11:17:45;;;;;;;;;;;18.30;61.90;;;;;;5109235;28;20458;-62
2022/06/11 11:20:40;;;;;;;1.95;1.85;;;18.40;62.20;;;;;;5109285;28;19966;-62
2022/06/11 11:23:17;;;;;;;2.22;2.13;;;18.40;61.70;;;;;;5109261;28;20775;-62
2022/06/11 11:25:57;;;;;;;2.10;2.00;;;18.40;61.20;;;;;;5107669;28;20052;-62
2022/06/11 11:28:41;;;;;;;1.88;1.77;;;18.40;60.50;;;;;;5107802;28;20096;-61
2022/06/11 11:31:17;;;;;;;1.70;1.60;;;18.40;61.00;;;;;;5109288;27;20487;-62
2022/06/11 11:34:10;;;;;;;2.10;2.00;;;18.40;61.60;;;;;;5103992;28;20040;-62
2022/06/11 11:36:38;;;;;;;2.17;2.00;;;18.40;61.90;;;;;;5107577;28;20100;-62
2022/06/11 11:39:23;;;;;;;1.98;1.88;;;18.40;61.30;;;;;;5108628;28;20043;-62
2022/06/11 11:42:11;;;;;;;2.13;1.92;;;18.40;61.10;;;;;;5108557;27;20047;-62
2022/06/11 11:44:51;;;;;;;1.77;1.67;;;18.40;61.20;;;;;;5108632;28;20059;-62
2022/06/11 11:47:33;;;;;;;1.88;1.77;;;18.40;61.30;;;;;;5108646;28;20124;-61
2022/06/11 11:50:30;;;;;;;2.67;1.77;;;18.50;61.00;;;;;;5108528;27;20048;-62
2022/06/11 11:53:20;;;;;;;2.00;1.90;;;18.50;60.90;;;;;;5108311;28;20466;-62
2022/06/11 11:56:00;;;;;;;;;;;18.40;60.80;;;;;;5108069;28;20046;-62
2022/06/11 11:58:40;;;;;;;1.77;1.67;;;18.40;60.90;;;;;;5108679;28;19923;-62
2022/06/11 12:01:14;;;;;;;2.05;1.95;;;18.50;61.20;;;;;;5108592;28;20043;-62
2022/06/11 12:03:57;;;;;;;2.20;2.10;;;18.40;61.20;;;;;;5104475;28;20044;-61
2022/06/11 12:06:41;;;;;;;1.90;1.80;;;18.40;61.30;;;;;;5092391;28;20054;-61
2022/06/11 12:09:20;;;;;;;1.60;1.50;;;18.40;61.70;;;;;;5107111;28;20047;-62
2022/06/11 12:12:15;;;;;;;1.77;1.67;;;18.50;61.50;;;;;;5107964;28;20229;-61
2022/06/11 12:14:52;;;;;;;1.52;1.42;;;18.50;61.20;;;;;;5107466;28;20039;-61
2022/06/11 12:17:59;;;;;;;2.00;1.90;;;18.50;60.90;;;;;;5108173;28;20108;-61
2022/06/11 12:20:52;;;;;;;2.03;1.92;;;18.50;61.00;;;;;;5108103;28;20504;-61
2022/06/11 12:23:36;;;;;;;1.90;1.63;;;18.50;61.20;;;;;;5106419;28;20048;-61
2022/06/11 12:26:13;;;;;;;1.83;1.73;;;18.50;61.20;;;;;;5107912;28;20104;-64
2022/06/11 12:28:55;;;;;;;1.80;1.70;;;18.50;61.60;;;;;;5107606;28;20109;-65
2022/06/11 12:31:23;;;;;;;2.25;1.83;;;18.50;61.40;;;;;;5107919;28;20071;-64
2022/06/11 12:33:51;;;;;;;1.88;1.77;;;18.50;61.50;;;;;;5107515;28;20472;-64
2022/06/11 12:36:45;;;;;;;1.65;1.52;;;18.60;61.80;;;;;;5103734;27;20717;-64
2022/06/11 12:39:52;;;;;;;1.95;1.85;;;18.60;60.60;;;;;;5107492;28;20104;-64
2022/06/11 12:42:55;;;;;;;1.65;1.55;;;18.60;61.10;;;;;;5106658;28;20340;-64
2022/06/11 12:45:38;;;;;;;1.50;1.40;;;18.60;61.30;;;;;;5105777;28;20472;-64
2022/06/11 12:48:54;;;;;;;1.45;1.38;;;18.60;61.60;;;;;;5105376;28;20407;-64
2022/06/11 12:52:01;;;;;;;1.35;1.35;;;18.60;61.30;;;;;;5102707;28;20452;-64
2022/06/11 12:55:08;;;;;;;1.45;1.33;;;18.60;61.60;;;;;;5102263;28;20068;-64
2022/06/11 12:58:11;;;;;;;1.70;1.60;;;18.70;61.30;;;;;;5102823;28;20036;-64
2022/06/11 13:00:55;;;;;;;1.98;1.88;;;18.70;61.40;;;;;;5105624;28;20319;-64
2022/06/11 13:04:02;;;;;;;1.15;1.15;;;18.70;61.50;;;;;;5105286;28;20500;-64
2022/06/11 13:07:05;;;;;;;1.50;1.45;;;18.80;61.40;;;;;;5102330;28;20048;-64
2022/06/11 13:09:54;;;;;;;1.38;1.25;;;18.80;61.50;;;;;;5102216;28;20553;-64
2022/06/11 13:12:59;;;;;;;1.55;1.45;;;18.80;61.40;;;;;;5105991;28;20043;-63
2022/06/11 13:15:36;;;;;;;1.38;1.30;;;18.80;61.40;;;;;;5105919;28;20363;-61
2022/06/11 13:18:41;;;;;;;1.10;1.10;;;18.80;61.40;;;;;;5103890;28;20453;-61
2022/06/11 13:21:48;;;;;;;3.72;1.17;;;18.80;61.30;;;;;;5104931;28;20449;-61
2022/06/11 13:24:53;;;;;;;1.52;1.20;;;18.80;61.30;;;;;;5103931;28;20108;-61
2022/06/11 13:27:59;;;;;;;1.40;1.40;;;18.90;61.10;;;;;;5103684;28;20411;-61
2022/06/11 13:30:51;;;;;;;1.52;1.45;;;18.90;61.10;;;;;;5104564;28;20052;-62
2022/06/11 13:33:35;;;;;;;1.15;1.15;;;18.90;61.10;;;;;;5105703;28;20168;-61
2022/06/11 13:36:18;;;;;;;1.23;1.17;;;18.90;61.00;;;;;;5105584;28;20377;-61
2022/06/11 13:39:21;;;;;;;1.45;1.35;;;18.90;61.20;;;;;;5102774;28;20055;-61
2022/06/11 13:42:19;;;;;;;1.23;1.20;;;18.90;61.30;;;;;;5101499;28;20150;-64